Time;durP1;ratioP1;P1;durP2;ratioP2;P2;SDS_P1;SDS_P2;PMS_P1;PMS_P2;Temp;Humidity;BMP_temperature;BMP_pressure;BME280_temperature;BME280_humidity;BME280_pressure;Samples;Min_cycle;Max_cycle;Signal;HPM_P1;HPM_P2
2023/04/09 00:01:05;;;;;;;41.58;25.30;;;;;;;11.57;69.39;102471.84;5082253;28;20028;-91
2023/04/09 00:03:31;;;;;;;37.35;23.95;;;;;;;11.59;70.17;102472.69;5086033;28;20391;-88
2023/04/09 00:05:56;;;;;;;41.28;24.73;;;;;;;11.55;70.00;102460.41;5084758;28;20028;-88
2023/04/09 00:08:25;;;;;;;41.55;25.60;;;;;;;11.55;70.57;102471.00;5085904;28;20110;-89
2023/04/09 00:10:51;;;;;;;38.50;23.92;;;;;;;11.68;69.66;102470.75;5086038;28;20502;-88
2023/04/09 00:13:17;;;;;;;36.50;23.17;;;;;;;11.73;69.28;102458.28;5088848;28;20437;-87
2023/04/09 00:15:43;;;;;;;38.58;23.48;;;;;;;11.74;69.36;102460.00;5076155;28;20020;-89
2023/04/09 00:18:08;;;;;;;38.58;23.00;;;;;;;11.77;69.17;102468.81;5080058;28;20166;-88
2023/04/09 00:20:33;;;;;;;35.80;21.73;;;;;;;11.79;68.27;102464.34;5085416;28;20043;-88
2023/04/09 00:22:59;;;;;;;34.90;21.58;;;;;;;11.73;69.34;102463.56;5086890;28;20028;-88
2023/04/09 00:25:24;;;;;;;32.50;21.25;;;;;;;11.73;68.91;102468.88;5078273;28;20032;-89
2023/04/09 00:27:50;;;;;;;34.67;22.00;;;;;;;11.73;68.49;102452.97;5080743;28;20464;-90
2023/04/09 00:30:15;;;;;;;29.90;20.27;;;;;;;11.74;68.31;102453.84;5081343;28;20024;-88
2023/04/09 00:32:41;;;;;;;32.45;21.40;;;;;;;11.73;68.94;102458.28;5077624;28;20074;-90
2023/04/09 00:35:07;;;;;;;30.67;20.75;;;;;;;11.45;69.38;102455.25;5080414;28;20382;-90
2023/04/09 00:37:32;;;;;;;31.35;20.77;;;;;;;11.57;69.25;102456.84;5083329;28;20570;-89
2023/04/09 00:39:58;;;;;;;33.08;20.80;;;;;;;11.62;69.10;102456.75;5081959;28;20111;-90
2023/04/09 00:42:23;;;;;;;31.35;21.65;;;;;;;11.70;68.82;102452.16;5071292;28;20060;-89
2023/04/09 00:44:48;;;;;;;31.25;19.85;;;;;;;11.37;69.75;102453.66;5076023;28;20031;-90
2023/04/09 00:47:14;;;;;;;29.20;19.88;;;;;;;11.30;70.02;102441.44;5075217;28;20146;-88
2023/04/09 00:49:39;;;;;;;30.73;20.55;;;;;;;11.27;70.99;102457.38;5071163;28;20024;-90
2023/04/09 00:52:05;;;;;;;31.48;20.45;;;;;;;11.27;70.92;102452.94;5071082;28;20028;-90
2023/04/09 00:54:31;;;;;;;31.70;20.20;;;;;;;11.26;70.29;102442.38;5074026;28;20025;-89
2023/04/09 00:56:57;;;;;;;32.55;20.20;;;;;;;11.47;70.33;102439.34;5072076;28;20037;-89
2023/04/09 00:59:24;;;;;;;33.45;20.30;;;;;;;11.51;69.70;102443.69;5076198;28;20038;-88
2023/04/09 01:01:49;;;;;;;34.22;21.20;;;;;;;11.42;70.42;102442.09;5084265;28;20399;-90
2023/04/09 01:04:15;;;;;;;34.25;21.65;;;;;;;11.47;69.95;102444.63;5082144;28;20028;-90
2023/04/09 01:06:48;;;;;;;29.90;19.30;;;;;;;11.45;70.13;102441.16;5083565;28;20100;-88
2023/04/09 01:09:20;;;;;;;32.60;20.67;;;;;;;11.42;69.89;102438.56;5085220;28;20031;-90
2023/04/09 01:12:21;;;;;;;30.45;18.35;;;;;;;11.55;69.45;102441.84;5077020;28;20051;-90
2023/04/09 01:15:02;;;;;;;35.72;21.45;;;;;;;11.53;70.24;102441.03;5041776;28;20033;-90
2023/04/09 01:17:34;;;;;;;33.47;20.85;;;;;;;11.51;70.04;102441.03;5075642;28;20040;-88
2023/04/09 01:20:17;;;;;;;35.50;22.33;;;;;;;11.40;70.02;102421.81;5077637;28;20017;-89
2023/04/09 01:23:06;;;;;;;33.90;21.35;;;;;;;11.46;70.09;102429.66;5086170;28;20108;-90
2023/04/09 01:26:10;;;;;;;36.10;20.55;;;;;;;11.50;69.78;102434.00;5090497;28;20038;-88
2023/04/09 01:28:41;;;;;;;37.38;22.38;;;;;;;11.41;70.53;102429.72;5060932;28;20135;-90
2023/04/09 01:31:12;;;;;;;34.90;21.52;;;;;;;11.44;70.35;102431.47;5081288;28;20028;-90
2023/04/09 01:33:38;;;;;;;35.47;21.73;;;;;;;11.38;70.46;102424.50;5082877;28;20043;-89
2023/04/09 01:36:05;;;;;;;34.45;21.55;;;;;;;11.36;70.32;102418.34;5086286;28;20066;-90
2023/04/09 01:38:34;;;;;;;38.22;23.65;;;;;;;11.36;70.97;102423.66;5081616;28;20364;-89
2023/04/09 01:41:01;;;;;;;36.30;22.60;;;;;;;11.37;70.81;102424.53;5080778;28;20043;-90
2023/04/09 01:43:26;;;;;;;35.38;22.20;;;;;;;11.35;70.62;102424.56;5082453;28;20040;-89
2023/04/09 01:45:53;;;;;;;37.60;23.10;;;;;;;11.36;70.66;102426.28;5078440;28;20501;-89
2023/04/09 01:48:19;;;;;;;34.92;22.17;;;;;;;11.33;71.31;102413.13;5077331;28;20069;-90
2023/04/09 01:50:45;;;;;;;38.72;23.25;;;;;;;11.40;70.81;102414.75;5079726;28;20040;-90
2023/04/09 01:53:11;;;;;;;39.42;23.58;;;;;;;11.40;70.57;102424.47;5081828;28;20028;-90
2023/04/09 01:55:36;;;;;;;37.78;22.50;;;;;;;11.38;70.84;102416.56;5078130;28;20034;-90
2023/04/09 01:58:01;;;;;;;36.13;21.77;;;;;;;11.43;70.11;102427.06;5074179;28;20029;-90
2023/04/09 02:00:35;;;;;;;37.03;22.92;;;;;;;11.37;70.31;102416.56;5077127;28;20135;-89
2023/04/09 02:03:06;;;;;;;35.63;22.23;;;;;;;11.40;70.98;102427.13;5083343;28;20030;-90
2023/04/09 02:05:40;;;;;;;37.78;22.67;;;;;;;11.41;70.88;102426.22;5088284;28;20483;-90
2023/04/09 02:08:08;;;;;;;35.45;22.65;;;;;;;11.34;71.29;102425.47;5079610;28;20016;-88
2023/04/09 02:10:34;;;;;;;39.30;23.65;;;;;;;11.30;71.31;102425.53;5079546;28;20495;-90
2023/04/09 02:13:04;;;;;;;38.78;22.77;;;;;;;11.26;71.34;102421.19;5083540;28;20135;-89
2023/04/09 02:15:31;;;;;;;38.33;23.20;;;;;;;11.31;71.74;102416.69;5079430;28;20026;-91
2023/04/09 02:17:56;;;;;;;37.72;22.73;;;;;;;11.32;70.81;102429.91;5078738;28;20032;-90
2023/04/09 02:20:21;;;;;;;40.08;24.02;;;;;;;11.32;71.20;102427.25;5077917;28;20030;-89
2023/04/09 02:22:47;;;;;;;37.22;23.30;;;;;;;11.30;70.97;102420.25;5092465;28;20052;-90
2023/04/09 02:25:14;;;;;;;39.88;24.38;;;;;;;11.31;71.47;102420.22;5088020;28;20054;-90
2023/04/09 02:27:39;;;;;;;39.55;23.50;;;;;;;11.29;71.92;102419.38;5084135;28;20024;-90
2023/04/09 02:30:05;;;;;;;37.28;22.30;;;;;;;11.27;70.84;102412.34;5084703;28;20024;-90
2023/04/09 02:32:30;;;;;;;41.97;24.50;;;;;;;11.18;71.76;102411.59;5081826;28;20051;-89
2023/04/09 02:34:56;;;;;;;40.83;23.67;;;;;;;11.14;72.30;102401.97;5074671;28;20107;-90
2023/04/09 02:37:21;;;;;;;38.95;22.95;;;;;;;11.19;71.43;102415.13;5084923;28;20032;-90
2023/04/09 02:39:46;;;;;;;41.97;24.92;;;;;;;11.18;72.69;102416.91;5077835;28;20026;-90
2023/04/09 02:42:12;;;;;;;40.10;23.10;;;;;;;11.16;72.56;102402.84;5079945;28;20357;-90
2023/04/09 02:44:37;;;;;;;36.00;22.17;;;;;;;11.17;71.96;102404.56;5086846;28;20131;-90
2023/04/09 02:47:03;;;;;;;38.65;22.98;;;;;;;11.21;71.70;102416.84;5076788;28;20028;-90
2023/04/09 02:49:28;;;;;;;42.95;24.10;;;;;;;11.18;72.01;102401.03;5079197;28;20032;-90
2023/04/09 02:51:54;;;;;;;43.88;25.13;;;;;;;11.21;72.08;102406.28;5080552;28;20081;-90
2023/04/09 02:54:19;;;;;;;37.72;24.25;;;;;;;11.18;71.85;102408.97;5076509;28;20024;-90
2023/04/09 02:56:44;;;;;;;39.85;23.83;;;;;;;11.21;71.41;102408.03;5074970;28;21181;-90
2023/04/09 02:59:10;;;;;;;41.90;24.23;;;;;;;11.17;71.72;102403.69;5080794;28;20020;-90
2023/04/09 03:01:35;;;;;;;43.85;25.38;;;;;;;11.13;72.57;102402.00;5089305;28;20031;-90
2023/04/09 03:04:00;;;;;;;41.30;23.30;;;;;;;11.11;71.77;102403.81;5078081;28;20024;-90
2023/04/09 03:06:26;;;;;;;45.97;26.52;;;;;;;11.13;72.90;102396.72;5086161;28;20027;-90
2023/04/09 03:08:51;;;;;;;45.50;26.00;;;;;;;11.16;72.01;102402.84;5075936;28;20029;-88
2023/04/09 03:11:16;;;;;;;42.92;25.95;;;;;;;11.13;72.14;102402.00;5079079;28;20036;-89
2023/04/09 03:13:42;;;;;;;45.08;24.50;;;;;;;11.16;72.82;102402.84;5093988;28;20502;-89
2023/04/09 03:16:09;;;;;;;46.60;24.80;;;;;;;11.14;72.08;102394.03;5096984;28;20086;-88
2023/04/09 03:18:34;;;;;;;46.53;26.35;;;;;;;11.15;71.96;102401.09;5078753;28;20484;-91
2023/04/09 03:21:04;;;;;;;45.72;26.88;;;;;;;11.09;71.90;102381.78;5084724;28;20028;-90
2023/04/09 03:23:33;;;;;;;48.70;27.13;;;;;;;11.08;71.88;102380.03;5078560;28;20031;-90
2023/04/09 03:26:00;;;;;;;51.42;27.15;;;;;;;11.07;71.85;102387.13;5079749;28;20028;-90
2023/04/09 03:28:25;;;;;;;49.28;27.33;;;;;;;11.04;72.31;102383.63;5101253;28;20169;-90
2023/04/09 03:30:50;;;;;;;45.78;25.95;;;;;;;11.04;71.78;102381.84;5078537;28;20103;-90
2023/04/09 03:33:16;;;;;;;48.75;26.63;;;;;;;10.93;72.50;102384.69;5094187;28;20038;-90
2023/04/09 03:35:42;;;;;;;51.67;28.10;;;;;;;10.98;72.26;102389.91;5079082;28;21324;-90
2023/04/09 03:38:07;;;;;;;50.83;26.80;;;;;;;10.65;73.51;102381.63;5077469;28;20025;-88
2023/04/09 03:40:32;;;;;;;52.00;28.45;;;;;;;10.57;74.40;102382.66;5076919;28;20043;-90
2023/04/09 03:42:58;;;;;;;52.10;28.27;;;;;;;10.54;73.80;102377.38;5073756;28;20032;-89
2023/04/09 03:45:23;;;;;;;49.47;27.13;;;;;;;10.57;74.54;102378.22;5074303;28;20077;-89
2023/04/09 03:47:48;;;;;;;51.80;28.73;;;;;;;10.53;74.76;102375.66;5073017;28;20365;-89
2023/04/09 03:50:13;;;;;;;53.13;28.40;;;;;;;10.51;75.27;102374.81;5089862;27;20506;-90
2023/04/09 03:52:39;;;;;;;50.38;28.15;;;;;;;10.44;74.14;102374.00;5080166;28;20028;-90
2023/04/09 03:55:05;;;;;;;48.67;28.35;;;;;;;10.40;73.87;102375.84;5071517;28;20024;-88
2023/04/09 03:57:30;;;;;;;51.33;28.27;;;;;;;10.35;73.07;102371.50;5076046;28;20028;-90
2023/04/09 03:59:55;;;;;;;46.35;25.77;;;;;;;10.37;72.97;102367.09;5080877;28;20047;-89
2023/04/09 04:02:20;;;;;;;47.80;25.10;;;;;;;10.45;72.60;102373.16;5082505;28;20055;-89
2023/04/09 04:04:46;;;;;;;47.03;26.10;;;;;;;10.46;72.51;102378.41;5074567;28;20132;-89
2023/04/09 04:07:11;;;;;;;44.55;24.83;;;;;;;10.45;72.18;102370.50;5076660;28;20069;-89
2023/04/09 04:09:36;;;;;;;45.45;23.90;;;;;;;10.37;71.91;102377.66;5083321;28;20019;-90
2023/04/09 04:12:02;;;;;;;39.33;23.52;;;;;;;10.28;72.91;102383.09;5081447;28;20043;-88
2023/04/09 04:14:27;;;;;;;41.33;23.23;;;;;;;10.19;72.38;102365.53;5080104;28;20016;-88
2023/04/09 04:16:52;;;;;;;44.92;23.25;;;;;;;10.21;72.03;102380.50;5072954;28;20024;-89
2023/04/09 04:19:18;;;;;;;44.63;23.83;;;;;;;10.17;72.84;102373.50;5076208;28;20062;-89
2023/04/09 04:21:43;;;;;;;46.63;24.75;;;;;;;10.22;72.92;102381.38;5089607;28;20105;-90
2023/04/09 04:24:08;;;;;;;46.83;24.70;;;;;;;10.14;73.12;102370.03;5086049;28;20026;-89
2023/04/09 04:26:33;;;;;;;47.53;23.92;;;;;;;10.07;72.06;102373.63;5079292;28;20521;-88
2023/04/09 04:28:59;;;;;;;46.97;24.98;;;;;;;10.07;72.28;102373.63;5083305;28;20042;-90
2023/04/09 04:31:24;;;;;;;45.13;23.42;;;;;;;10.02;71.86;102371.06;5083899;28;20486;-89
2023/04/09 04:33:49;;;;;;;40.30;21.95;;;;;;;9.92;72.18;102367.66;5080236;28;20415;-90
2023/04/09 04:36:15;;;;;;;43.38;22.30;;;;;;;9.88;72.47;102379.16;5094296;28;20043;-89
2023/04/09 04:38:40;;;;;;;41.70;23.25;;;;;;;9.84;72.86;102380.13;5080990;28;20024;-90
2023/04/09 04:41:06;;;;;;;46.08;23.90;;;;;;;9.79;72.11;102379.31;5083648;28;20028;-89
2023/04/09 04:43:32;;;;;;;43.28;23.02;;;;;;;9.74;72.84;102381.09;5073708;28;20029;-90
2023/04/09 04:45:58;;;;;;;41.70;22.38;;;;;;;9.62;72.93;102384.75;5080587;28;20021;-89
2023/04/09 04:48:23;;;;;;;41.67;23.73;;;;;;;9.51;72.99;102375.19;5081955;28;20525;-90
2023/04/09 04:51:00;;;;;;;43.58;22.85;;;;;;;9.44;72.84;102382.31;5079205;28;20024;-89
2023/04/09 04:53:26;;;;;;;43.97;23.92;;;;;;;9.28;73.56;102380.72;5080038;28;20566;-90
2023/04/09 04:55:51;;;;;;;43.63;23.25;;;;;;;9.22;73.33;102386.06;5076722;28;20025;-89
2023/04/09 04:58:17;;;;;;;44.97;23.05;;;;;;;9.11;73.75;102387.06;5083038;28;20031;-89
2023/04/09 05:00:42;;;;;;;42.60;24.33;;;;;;;9.06;74.06;102386.22;5079572;28;20024;-87
2023/04/09 05:03:07;;;;;;;41.50;21.55;;;;;;;9.01;73.42;102388.03;5082425;28;20562;-91
2023/04/09 05:05:33;;;;;;;44.45;23.20;;;;;;;8.85;74.62;102384.63;5094340;27;20030;-89
2023/04/09 05:07:58;;;;;;;39.63;22.05;;;;;;;8.95;74.17;102388.06;5077350;28;20446;-90
2023/04/09 05:10:23;;;;;;;39.75;21.40;;;;;;;8.99;73.18;102388.91;5079203;28;20028;-90
2023/04/09 05:12:49;;;;;;;41.80;22.42;;;;;;;8.97;72.68;102383.66;5085120;28;20116;-89
2023/04/09 05:15:14;;;;;;;43.58;22.48;;;;;;;8.91;72.66;102386.38;5087654;28;20028;-90
2023/04/09 05:17:42;;;;;;;45.90;23.10;;;;;;;8.82;72.82;102386.44;5085886;28;20032;-89
2023/04/09 05:20:09;;;;;;;47.15;22.08;;;;;;;8.71;73.44;102383.88;5085247;28;20034;-90
2023/04/09 05:22:35;;;;;;;42.38;22.63;;;;;;;8.72;74.39;102387.38;5083810;28;20082;-90
2023/04/09 05:25:00;;;;;;;40.65;21.83;;;;;;;8.64;74.89;102377.78;5074138;28;20020;-90
2023/04/09 05:27:26;;;;;;;41.45;21.80;;;;;;;8.67;74.91;102375.13;5089010;28;20031;-89
2023/04/09 05:29:51;;;;;;;46.47;23.65;;;;;;;8.68;74.86;102379.50;5089272;28;20468;-90
2023/04/09 05:32:17;;;;;;;44.13;23.02;;;;;;;8.70;74.80;102384.75;5081195;28;20028;-89
2023/04/09 05:34:42;;;;;;;41.60;22.33;;;;;;;8.72;74.77;102396.19;5077649;28;20111;-89
2023/04/09 05:37:07;;;;;;;47.58;23.23;;;;;;;8.73;75.02;102383.88;5090707;28;20300;-89
2023/04/09 05:39:32;;;;;;;43.33;23.23;;;;;;;8.73;75.03;102382.13;5091440;28;20535;-89
2023/04/09 05:41:58;;;;;;;41.28;22.48;;;;;;;8.74;75.35;102381.22;5078596;28;20088;-89
2023/04/09 05:44:23;;;;;;;40.28;22.05;;;;;;;8.73;74.99;102373.31;5088415;28;20032;-88
2023/04/09 05:46:48;;;;;;;42.08;21.88;;;;;;;8.66;75.10;102370.72;5069373;28;20380;-88
2023/04/09 05:49:15;;;;;;;39.55;22.27;;;;;;;8.73;74.35;102384.75;5085753;28;20058;-90
2023/04/09 05:51:42;;;;;;;42.85;21.50;;;;;;;8.74;74.85;102385.63;5079615;28;20465;-90
2023/04/09 05:54:07;;;;;;;41.95;21.65;;;;;;;8.74;74.63;102378.59;5090024;28;20385;-89
2023/04/09 05:56:32;;;;;;;41.35;22.88;;;;;;;8.73;74.54;102371.56;5081925;28;20106;-90
2023/04/09 05:58:58;;;;;;;41.42;22.30;;;;;;;8.83;74.84;102389.06;5091124;28;20378;-90
2023/04/09 06:01:23;;;;;;;47.33;23.27;;;;;;;8.80;75.12;102383.78;5085016;28;20487;-90
2023/04/09 06:03:48;;;;;;;39.67;21.00;;;;;;;8.81;74.69;102387.31;5094214;28;20564;-89
2023/04/09 06:06:13;;;;;;;43.78;23.30;;;;;;;8.86;74.79;102390.78;5079488;28;20035;-90
2023/04/09 06:08:39;;;;;;;43.42;23.40;;;;;;;8.85;74.78;102383.75;5087418;28;20380;-89
2023/04/09 06:11:09;;;;;;;40.25;21.85;;;;;;;8.87;74.79;102384.63;5082056;28;20048;-89
2023/04/09 06:13:34;;;;;;;43.95;22.88;;;;;;;8.87;74.99;102387.28;5089623;28;20412;-90
2023/04/09 06:16:00;;;;;;;39.47;21.88;;;;;;;8.97;74.71;102399.50;5076225;28;20020;-90
2023/04/09 06:18:26;;;;;;;39.80;22.20;;;;;;;8.94;74.51;102383.69;5088903;28;20067;-89
2023/04/09 06:21:04;;;;;;;43.47;23.25;;;;;;;8.99;74.35;102387.16;5092936;28;20024;-89
2023/04/09 06:23:29;;;;;;;45.25;22.95;;;;;;;9.05;74.09;102402.94;5081854;28;20502;-89
2023/04/09 06:25:54;;;;;;;41.15;21.25;;;;;;;9.07;74.32;102389.72;5097206;28;20060;-89
2023/04/09 06:28:20;;;;;;;45.13;22.65;;;;;;;9.14;74.05;102396.72;5086195;28;20024;-90
2023/04/09 06:30:45;;;;;;;41.05;21.48;;;;;;;9.12;73.83;102403.75;5084362;28;20430;-90
2023/04/09 06:33:11;;;;;;;41.42;22.13;;;;;;;9.15;74.16;102407.25;5097589;28;20020;-90
2023/04/09 06:35:36;;;;;;;44.40;23.95;;;;;;;9.16;73.64;102393.16;5097526;28;20016;-90
2023/04/09 06:38:02;;;;;;;40.92;22.05;;;;;;;9.28;73.68;102407.13;5082457;28;20025;-88
2023/04/09 06:40:27;;;;;;;43.17;22.88;;;;;;;9.33;73.51;102402.69;5082490;28;20028;-90
2023/04/09 06:42:52;;;;;;;46.65;23.05;;;;;;;9.36;73.35;102403.50;5085441;28;20055;-91
2023/04/09 06:45:18;;;;;;;43.70;23.35;;;;;;;9.52;73.05;102414.81;5085658;28;20028;-90
2023/04/09 06:47:43;;;;;;;41.45;23.60;;;;;;;9.59;72.79;102418.25;5086834;28;20028;-90
2023/04/09 06:50:08;;;;;;;46.90;25.48;;;;;;;9.68;73.06;102416.38;5089440;28;20027;-90
2023/04/09 06:52:34;;;;;;;43.58;23.17;;;;;;;9.75;73.08;102405.75;5088873;28;20032;-90
2023/04/09 06:54:59;;;;;;;49.00;24.02;;;;;;;9.85;72.12;102410.03;5079436;28;20460;-89
2023/04/09 06:57:25;;;;;;;45.08;24.23;;;;;;;9.95;71.38;102414.31;5084054;28;20560;-90
2023/04/09 06:59:50;;;;;;;43.38;23.55;;;;;;;10.01;71.02;102406.31;5083078;28;20491;-89
2023/04/09 07:02:15;;;;;;;40.60;23.42;;;;;;;10.04;70.77;102419.47;5088305;28;20102;-90
2023/04/09 07:04:41;;;;;;;41.80;23.75;;;;;;;10.11;72.30;102407.06;5079064;28;20111;-90
2023/04/09 07:07:06;;;;;;;48.15;25.70;;;;;;;10.29;72.12;102421.84;5088394;28;20019;-90
2023/04/09 07:09:31;;;;;;;41.05;24.42;;;;;;;10.43;72.48;102409.28;5086250;28;20042;-90
2023/04/09 07:11:56;;;;;;;47.85;26.13;;;;;;;10.56;70.98;102408.22;5087470;28;20048;-90
2023/04/09 07:14:22;;;;;;;43.28;24.35;;;;;;;10.62;70.70;102407.25;5084887;28;20032;-91
2023/04/09 07:16:47;;;;;;;54.63;26.20;;;;;;;10.71;70.88;102412.41;5084731;28;20433;-90
2023/04/09 07:19:13;;;;;;;47.25;25.58;;;;;;;10.80;70.83;102404.31;5081733;28;20142;-89
2023/04/09 07:21:39;;;;;;;43.63;25.55;;;;;;;10.86;69.84;102408.63;5082717;28;20111;-90
2023/04/09 07:24:04;;;;;;;45.13;25.50;;;;;;;10.84;69.50;102416.59;5080136;28;20032;-88
2023/04/09 07:26:30;;;;;;;46.00;25.85;;;;;;;10.94;69.97;102412.03;5082871;28;20032;-89
2023/04/09 07:28:55;;;;;;;43.72;26.10;;;;;;;11.01;70.07;102418.13;5078024;28;20035;-90
2023/04/09 07:31:20;;;;;;;49.17;26.85;;;;;;;11.16;70.18;102423.13;5071960;28;20195;-91
2023/04/09 07:33:45;;;;;;;44.05;26.65;;;;;;;11.03;68.93;102417.19;5072447;28;20351;-90
2023/04/09 07:36:11;;;;;;;48.25;28.83;;;;;;;10.84;68.70;102410.44;5073475;28;20042;-90
2023/04/09 07:38:36;;;;;;;48.88;27.80;;;;;;;10.78;68.64;102416.72;5073918;28;20024;-90
2023/04/09 07:41:01;;;;;;;46.58;27.02;;;;;;;10.96;69.22;102418.19;5077237;28;20388;-89
2023/04/09 07:43:27;;;;;;;47.58;26.83;;;;;;;11.09;68.95;102418.84;5085029;28;20035;-91
2023/04/09 07:45:52;;;;;;;46.25;28.38;;;;;;;11.12;69.73;102419.66;5076852;28;20123;-90
2023/04/09 07:48:18;;;;;;;46.30;26.90;;;;;;;11.11;68.51;102420.56;5075550;28;20489;-90
2023/04/09 07:50:47;;;;;;;45.53;27.77;;;;;;;11.28;68.93;102424.69;5072665;28;20459;-92
2023/04/09 07:53:12;;;;;;;44.92;26.30;;;;;;;11.32;68.71;102421.09;5078261;28;20367;-91
2023/04/09 07:55:39;;;;;;;45.65;27.42;;;;;;;11.41;68.84;102426.22;5080181;28;20102;-91
2023/04/09 07:58:05;;;;;;;43.15;25.95;;;;;;;11.52;69.14;102418.97;5078655;28;20028;-90
2023/04/09 08:00:30;;;;;;;44.60;25.73;;;;;;;11.79;67.97;102414.88;5082129;28;20034;-90
2023/04/09 08:02:56;;;;;;;48.67;26.85;;;;;;;11.66;66.90;102416.94;5083850;28;20084;-90
2023/04/09 08:05:21;;;;;;;43.47;26.88;;;;;;;11.89;66.80;102428.84;5078621;28;20479;-91
2023/04/09 08:07:47;;;;;;;45.25;26.65;;;;;;;12.09;65.61;102424.03;5086877;28;20089;-90
2023/04/09 08:10:14;;;;;;;43.88;27.95;;;;;;;12.51;65.80;102418.69;5081250;28;20107;-91
2023/04/09 08:12:40;;;;;;;45.40;27.17;;;;;;;12.99;62.74;102429.91;5081480;28;20052;-91
2023/04/09 08:15:05;;;;;;;43.42;27.23;;;;;;;13.71;61.59;102413.91;5080214;28;20044;-89
2023/04/09 08:17:31;;;;;;;44.58;27.40;;;;;;;14.24;59.70;102414.13;5083001;28;20151;-90
2023/04/09 08:19:56;;;;;;;41.67;25.13;;;;;;;14.55;58.28;102419.41;5089537;28;20466;-90
2023/04/09 08:22:21;;;;;;;41.88;26.95;;;;;;;14.80;57.10;102417.69;5090021;28;20126;-90
2023/04/09 08:24:50;;;;;;;43.33;25.65;;;;;;;14.39;57.26;102424.28;5079889;28;20036;-91
2023/04/09 08:27:16;;;;;;;42.97;27.35;;;;;;;13.97;58.79;102421.13;5086680;28;20028;-91
2023/04/09 08:29:42;;;;;;;43.33;27.25;;;;;;;14.00;60.01;102416.59;5076931;28;20031;-91
2023/04/09 08:32:07;;;;;;;41.47;27.50;;;;;;;13.66;60.73;102416.69;5081082;28;20506;-89
2023/04/09 08:34:35;;;;;;;48.58;29.65;;;;;;;13.48;60.37;102417.19;5076710;28;20115;-91
2023/04/09 08:37:01;;;;;;;45.22;28.75;;;;;;;13.49;60.68;102417.13;5084931;28;20295;-90
2023/04/09 08:39:26;;;;;;;40.35;26.33;;;;;;;13.78;61.64;102421.63;5075087;28;20021;-92
2023/04/09 08:41:52;;;;;;;46.13;28.42;;;;;;;13.66;61.09;102414.03;5090557;28;20388;-90
2023/04/09 08:44:18;;;;;;;41.88;27.90;;;;;;;13.86;60.99;102416.13;5085221;28;20080;-91
2023/04/09 08:46:43;;;;;;;45.33;28.02;;;;;;;14.46;59.00;102409.88;5074971;28;20036;-91
2023/04/09 08:49:11;;;;;;;44.85;29.40;;;;;;;15.02;57.07;102409.00;5088538;28;20463;-91
2023/04/09 08:51:38;;;;;;;44.88;29.27;;;;;;;15.74;57.04;102407.34;5092223;28;20024;-89
2023/04/09 08:54:03;;;;;;;45.47;28.25;;;;;;;16.26;54.45;102407.16;5088724;28;20035;-90
2023/04/09 08:56:29;;;;;;;46.00;29.30;;;;;;;16.83;53.91;102411.13;5084130;28;20035;-90
2023/04/09 08:58:55;;;;;;;42.08;27.67;;;;;;;17.39;51.95;102398.97;5086295;28;20031;-93
2023/04/09 09:01:31;;;;;;;43.17;28.35;;;;;;;17.37;53.35;102408.88;5079502;28;20118;-90
2023/04/09 09:04:04;;;;;;;43.17;27.75;;;;;;;17.11;52.00;102412.66;5076420;28;20529;-92
2023/04/09 09:06:32;;;;;;;44.42;27.63;;;;;;;17.48;51.17;102406.59;5079245;28;20025;-91
2023/04/09 09:09:11;;;;;;;44.20;28.73;;;;;;;17.72;51.39;102402.84;5072140;28;20031;-91
2023/04/09 09:11:45;;;;;;;37.80;27.38;;;;;;;17.87;51.17;102401.28;5078145;28;20089;-91
2023/04/09 09:14:13;;;;;;;44.15;29.05;;;;;;;17.75;49.90;102408.06;5088819;28;20020;-92
2023/04/09 09:16:44;;;;;;;45.05;28.02;;;;;;;17.55;49.80;102408.06;5076133;28;20499;-91
2023/04/09 09:19:29;;;;;;;44.22;28.13;;;;;;;17.77;52.24;102400.00;5075698;28;20387;-92
2023/04/09 09:21:56;;;;;;;41.97;28.92;;;;;;;18.81;47.99;102393.22;5078284;28;20077;-92
2023/04/09 09:24:21;;;;;;;42.72;29.10;;;;;;;19.78;47.47;102398.97;5086871;28;20034;-90
2023/04/09 09:26:46;;;;;;;43.75;28.40;;;;;;;20.35;45.50;102392.19;5081982;28;20028;-91
2023/04/09 09:29:12;;;;;;;39.35;27.08;;;;;;;20.46;43.74;102391.56;5083336;28;20535;-90
2023/04/09 09:31:49;;;;;;;40.97;28.90;;;;;;;20.82;42.80;102391.28;5071013;28;20040;-90
2023/04/09 09:34:16;;;;;;;41.83;28.38;;;;;;;20.14;43.16;102393.38;5076529;28;20144;-91
2023/04/09 09:36:43;;;;;;;36.67;26.63;;;;;;;20.22;46.07;102388.44;5083206;28;20432;-91
2023/04/09 09:39:09;;;;;;;37.47;28.58;;;;;;;21.00;41.93;102394.72;5080106;28;20114;-89
2023/04/09 09:41:35;;;;;;;35.78;25.33;;;;;;;20.52;42.33;102391.25;5092836;28;20107;-90
2023/04/09 09:44:00;;;;;;;38.88;28.15;;;;;;;20.56;41.74;102389.25;5078044;28;20054;-91
2023/04/09 09:46:27;;;;;;;39.20;27.77;;;;;;;20.36;43.54;102383.16;5084200;28;20508;-89
2023/04/09 09:48:52;;;;;;;36.58;25.77;;;;;;;21.07;42.52;102384.44;5091266;27;20047;-90
2023/04/09 09:51:18;;;;;;;35.38;25.92;;;;;;;21.56;40.65;102374.28;5070950;28;20071;-92
2023/04/09 09:53:44;;;;;;;37.35;27.92;;;;;;;20.78;42.00;102378.97;5083348;28;20024;-91
2023/04/09 09:56:23;;;;;;;34.33;26.05;;;;;;;20.59;42.28;102368.44;5097444;28;20027;-91
2023/04/09 09:58:57;;;;;;;35.97;26.10;;;;;;;20.07;46.21;102357.94;5084221;28;20063;-91
2023/04/09 10:01:25;;;;;;;36.38;27.58;;;;;;;20.25;43.72;102357.88;5077556;28;20063;-91
2023/04/09 10:03:51;;;;;;;33.75;26.23;;;;;;;20.64;43.28;102366.34;5078803;28;20082;-92
2023/04/09 10:06:17;;;;;;;35.33;25.13;;;;;;;21.28;40.69;102353.56;5093238;28;20028;-91
2023/04/09 10:08:43;;;;;;;36.90;27.40;;;;;;;21.96;40.76;102352.06;5090211;28;20016;-91
2023/04/09 10:11:09;;;;;;;33.85;26.52;;;;;;;22.01;39.03;102353.50;5088860;28;20055;-90
2023/04/09 10:13:37;;;;;;;30.20;23.55;;;;;;;21.77;38.88;102357.75;5084003;28;20514;-90
2023/04/09 10:16:03;;;;;;;30.00;22.90;;;;;;;21.63;38.32;102351.41;5087450;28;20070;-90
2023/04/09 10:18:33;;;;;;;31.30;23.35;;;;;;;21.35;38.76;102343.31;5073990;28;20443;-91
2023/04/09 10:21:34;;;;;;;31.13;24.50;;;;;;;20.88;40.64;102352.41;5077282;28;20326;-93
2023/04/09 10:24:04;;;;;;;33.38;22.95;;;;;;;21.79;40.66;102335.16;5087476;28;20077;-92
2023/04/09 10:26:32;;;;;;;25.67;19.92;;;;;;;22.05;37.59;102335.31;5082155;28;20384;-91
2023/04/09 10:29:12;;;;;;;29.98;22.38;;;;;;;21.28;39.06;102337.44;5084015;28;20016;-92
2023/04/09 10:31:51;;;;;;;29.23;23.55;;;;;;;19.93;42.31;102335.50;5082519;28;20433;-92
2023/04/09 10:34:19;;;;;;;34.03;24.48;;;;;;;18.93;44.63;102334.56;5078250;28;20028;-91
2023/04/09 10:36:48;;;;;;;27.05;21.55;;;;;;;19.91;44.62;102338.28;5077014;28;20020;-91
2023/04/09 10:39:13;;;;;;;32.75;23.80;;;;;;;20.27;40.33;102321.03;5077988;28;20031;-91
2023/04/09 10:41:41;;;;;;;31.35;23.20;;;;;;;20.13;40.98;102330.75;5087291;28;20024;-93
2023/04/09 10:44:19;;;;;;;26.45;20.55;;;;;;;19.22;42.55;102327.72;5083104;28;20027;-91
2023/04/09 10:46:45;;;;;;;26.63;21.75;;;;;;;19.37;44.45;102321.53;5070804;28;20399;-89
2023/04/09 10:49:18;;;;;;;25.88;18.80;;;;;;;19.19;41.44;102326.06;5079593;28;20035;-92
2023/04/09 10:51:51;;;;;;;23.30;18.70;;;;;;;19.15;43.70;102324.47;5078402;28;20028;-90
2023/04/09 10:54:32;;;;;;;32.47;23.20;;;;;;;18.89;43.79;102327.66;5081825;28;20372;-93
2023/04/09 10:57:06;;;;;;;35.35;24.65;;;;;;;18.75;44.88;102318.50;5079421;28;20058;-90
2023/04/09 10:59:33;;;;;;;28.45;20.77;;;;;;;18.52;43.80;102311.59;5073821;28;20138;-90
2023/04/09 11:01:58;;;;;;;27.10;21.15;;;;;;;18.16;43.53;102314.28;5075820;28;20474;-91
2023/04/09 11:04:38;;;;;;;29.65;21.27;;;;;;;18.32;44.49;102309.03;5080791;28;20016;-91
2023/04/09 11:07:05;;;;;;;25.10;19.48;;;;;;;18.28;45.47;102305.66;5072193;28;20024;-92
2023/04/09 11:09:34;;;;;;;25.38;19.45;;;;;;;18.92;42.18;102306.91;5077284;28;20583;-91
2023/04/09 11:12:00;;;;;;;22.17;17.33;;;;;;;20.40;40.40;102300.56;5075820;28;20762;-90